Time;durP1;ratioP1;P1;durP2;ratioP2;P2;SDS_P1;SDS_P2;PMS_P1;PMS_P2;Temp;Humidity;BMP_temperature;BMP_pressure;BME280_temperature;BME280_humidity;BME280_pressure;Samples;Min_cycle;Max_cycle;Signal;HPM_P1;HPM_P2
2022/05/02 00:00:39;;;;;;;;;;;;;;;11.99;45.15;101954.47;5021805;28;19921;-55
2022/05/02 00:03:05;;;;;;;;;;;;;;;12.00;44.72;101948.25;5022290;28;19932;-55
2022/05/02 00:05:30;;;;;;;;;;;;;;;12.01;44.84;101952.63;5030308;28;20369;-56
2022/05/02 00:07:56;;;;;;;;;;;;;;;12.02;44.86;101955.16;5028212;28;20376;-55
2022/05/02 00:10:21;;;;;;;;;;;;;;;11.98;44.96;101955.34;5033734;28;19909;-50
2022/05/02 00:12:46;;;;;;;;;;;;;;;11.93;44.85;101954.69;5032291;28;19918;-56
2022/05/02 00:15:12;;;;;;;;;;;;;;;11.85;45.14;101955.03;5026105;28;20392;-55
2022/05/02 00:20:21;;;;;;;;;;;;;;;11.63;45.66;101941.91;5025329;28;20022;-54
2022/05/02 00:22:46;;;;;;;;;;;;;;;11.52;45.78;101937.97;5025334;28;20380;-50
2022/05/02 00:25:12;;;;;;;;;;;;;;;11.50;45.97;101942.44;5027499;28;19920;-54
2022/05/02 00:27:38;;;;;;;;;;;;;;;11.51;45.88;101943.28;5020666;28;19921;-57
2022/05/02 00:30:04;;;;;;;;;;;;;;;11.51;45.79;101936.25;5024655;28;19921;-57
2022/05/02 00:32:29;;;;;;;;;;;;;;;11.51;45.94;101938.88;5026630;28;21078;-54
2022/05/02 00:34:54;;;;;;;;;;;;;;;11.50;45.78;101936.31;5008912;28;19925;-53
2022/05/02 00:37:20;;;;;;;;;;;;;;;11.53;45.82;101937.06;5031157;28;19913;-56
2022/05/02 00:39:45;;;;;;;;;;;;;;;11.52;45.99;101937.97;5027022;28;19977;-54
2022/05/02 00:42:11;;;;;;;;;;;;;;;11.54;45.87;101937.88;5024412;28;20374;-57
2022/05/02 00:44:40;;;;;;;;;;;;;;;11.52;45.91;101943.25;5023961;28;19925;-53
2022/05/02 00:47:05;;;;;;;;;;;;;;;11.47;45.96;101945.19;5028405;28;19913;-56
2022/05/02 00:49:30;;;;;;;;;;;;;;;11.39;46.30;101942.03;5026268;28;20372;-54
2022/05/02 00:51:56;;;;;;;;;;;;;;;11.32;46.22;101941.44;5024723;28;19921;-55
2022/05/02 00:54:21;;;;;;;;;;;;;;;11.29;46.27;101939.78;5026952;28;20001;-55
2022/05/02 00:56:47;;;;;;;;;;;;;;;11.27;46.51;101941.63;5022348;28;19924;-55
2022/05/02 00:59:14;;;;;;;;;;;;;;;11.22;46.67;101946.25;5027150;28;19929;-56
2022/05/02 01:01:40;;;;;;;;;;;;;;;11.13;46.55;101943.97;5022273;28;20376;-53
2022/05/02 01:04:06;;;;;;;;;;;;;;;11.05;46.90;101940.78;5027251;28;19952;-50
2022/05/02 01:09:15;;;;;;;;;;;;;;;10.84;47.03;101948.63;5029196;28;19943;-53
2022/05/02 01:11:40;;;;;;;;;;;;;;;10.82;47.18;101946.06;5029401;28;20351;-55
2022/05/02 01:14:07;;;;;;;;;;;;;;;10.76;47.41;101943.66;5027532;28;20365;-52
2022/05/02 01:16:32;;;;;;;;;;;;;;;10.60;47.62;101934.66;5023528;28;19967;-51
2022/05/02 01:18:59;;;;;;;;;;;;;;;10.45;47.93;101941.38;5023334;28;19944;-52
2022/05/02 01:21:25;;;;;;;;;;;;;;;10.31;48.19;101944.47;5029823;28;19920;-52
2022/05/02 01:23:53;;;;;;;;;;;;;;;10.24;48.29;101946.47;5024967;28;19917;-53
2022/05/02 01:26:18;;;;;;;;;;;;;;;10.16;48.48;101943.28;5023729;28;19912;-53
2022/05/02 01:28:51;;;;;;;;;;;;;;;10.14;48.58;101947.75;5029598;28;20308;-56
2022/05/02 01:31:17;;;;;;;;;;;;;;;10.09;48.70;101944.41;5027846;28;20323;-53
2022/05/02 01:33:42;;;;;;;;;;;;;;;10.05;48.77;101949.81;5025613;28;19917;-53
2022/05/02 01:36:08;;;;;;;;;;;;;;;10.05;48.58;101949.81;5025887;28;20261;-56
2022/05/02 01:38:35;;;;;;;;;;;;;;;10.02;48.73;101949.91;5028435;28;20265;-53
2022/05/02 01:41:01;;;;;;;;;;;;;;;9.99;48.68;101943.88;5029746;28;19925;-54
2022/05/02 01:43:27;;;;;;;;;;;;;;;9.96;48.88;101939.59;5026851;28;19913;-53
2022/05/02 01:45:52;;;;;;;;;;;;;;;9.96;48.61;101931.72;5027068;28;19924;-60
2022/05/02 01:48:18;;;;;;;;;;;;;;;10.02;48.88;101934.13;5026656;28;19913;-53
2022/05/02 01:50:43;;;;;;;;;;;;;;;10.11;48.56;101930.31;5030805;28;19920;-53
2022/05/02 01:53:08;;;;;;;;;;;;;;;10.18;48.60;101923.91;5030412;28;19917;-53
2022/05/02 01:55:33;;;;;;;;;;;;;;;10.24;48.40;101917.53;5026814;28;20685;-52
2022/05/02 01:57:59;;;;;;;;;;;;;;;10.28;48.46;101913.06;5007108;28;20335;-54
2022/05/02 02:00:24;;;;;;;;;;;;;;;10.27;48.31;101916.59;5026753;28;19931;-53
2022/05/02 02:02:49;;;;;;;;;;;;;;;10.27;48.54;101919.22;5029017;28;20377;-53
2022/05/02 02:07:59;;;;;;;;;;;;;;;10.30;48.26;101921.72;5030504;28;19924;-50
2022/05/02 02:10:24;;;;;;;;;;;;;;;10.32;48.38;101920.75;5024718;28;19921;-54
2022/05/02 02:12:49;;;;;;;;;;;;;;;10.37;48.16;101918.78;5022530;28;19925;-56
2022/05/02 02:15:15;;;;;;;;;;;;;;;10.40;48.08;101911.72;5027652;28;19999;-53
2022/05/02 02:17:41;;;;;;;;;;;;;;;10.41;48.24;101913.44;5027224;28;19916;-52
2022/05/02 02:20:06;;;;;;;;;;;;;;;10.42;48.19;101912.53;5026714;28;19964;-52
2022/05/02 02:22:32;;;;;;;;;;;;;;;10.42;48.23;101912.53;5020343;28;20388;-54
2022/05/02 02:24:57;;;;;;;;;;;;;;;10.41;48.18;101909.06;5027748;28;19920;-50
2022/05/02 02:27:22;;;;;;;;;;;;;;;10.43;48.02;101899.34;5021846;28;19924;-53
2022/05/02 02:29:48;;;;;;;;;;;;;;;10.44;48.09;101903.66;5029239;28;19917;-58
2022/05/02 02:32:13;;;;;;;;;;;;;;;10.45;48.09;101907.16;5023446;28;21263;-57
2022/05/02 02:34:38;;;;;;;;;;;;;;;10.44;48.16;101895.75;5023770;28;19917;-57
2022/05/02 02:37:04;;;;;;;;;;;;;;;10.45;48.16;101896.63;5022204;28;19927;-56
2022/05/02 02:39:29;;;;;;;;;;;;;;;10.44;48.14;101898.41;5023938;28;19925;-58
2022/05/02 02:41:54;;;;;;;;;;;;;;;10.43;48.23;101896.72;5023383;28;19921;-57
2022/05/02 02:44:20;;;;;;;;;;;;;;;10.43;48.33;101893.22;5021755;28;19917;-56
2022/05/02 02:46:45;;;;;;;;;;;;;;;10.43;48.17;101895.84;5023160;28;19925;-56
2022/05/02 02:49:10;;;;;;;;;;;;;;;10.40;48.36;101901.22;5023609;28;19927;-56
2022/05/02 02:51:35;;;;;;;;;;;;;;;10.35;48.29;101896.97;5021927;28;19944;-57
2022/05/02 02:54:01;;;;;;;;;;;;;;;10.35;48.38;101899.59;5021039;28;19921;-56
2022/05/02 02:56:26;;;;;;;;;;;;;;;10.35;48.46;101899.59;5021663;28;19925;-57
2022/05/02 02:58:51;;;;;;;;;;;;;;;10.33;48.36;101895.28;5026846;28;20000;-58
2022/05/02 03:01:17;;;;;;;;;;;;;;;10.21;48.67;101886.97;5024917;28;20335;-57
2022/05/02 03:03:42;;;;;;;;;;;;;;;10.17;48.77;101893.25;5023381;28;19917;-57
2022/05/02 03:06:07;;;;;;;;;;;;;;;10.16;48.80;101888.06;5019179;28;19913;-57
2022/05/02 03:08:34;;;;;;;;;;;;;;;10.14;48.58;101890.72;5023830;28;19921;-56
2022/05/02 03:11:00;;;;;;;;;;;;;;;10.13;48.58;101883.78;5021180;28;19946;-55
2022/05/02 03:13:25;;;;;;;;;;;;;;;10.09;48.55;101887.44;5023784;28;19979;-58
2022/05/02 03:15:51;;;;;;;;;;;;;;;10.01;48.77;101885.09;5023873;28;19931;-58
2022/05/02 03:18:16;;;;;;;;;;;;;;;9.95;48.78;101874.78;5025805;28;19959;-56
2022/05/02 03:20:41;;;;;;;;;;;;;;;9.93;48.75;101887.13;5027808;28;19928;-58
2022/05/02 03:23:07;;;;;;;;;;;;;;;9.93;48.64;101892.38;5022472;28;19925;-57
2022/05/02 03:25:32;;;;;;;;;;;;;;;9.92;48.72;101890.66;5021697;28;19967;-57
2022/05/02 03:27:57;;;;;;;;;;;;;;;9.87;48.60;101890.00;5026346;28;19965;-57
2022/05/02 03:30:22;;;;;;;;;;;;;;;9.80;48.78;101893.75;5024313;28;19995;-57
2022/05/02 03:32:48;;;;;;;;;;;;;;;9.73;48.90;101896.63;5024051;28;19917;-58
2022/05/02 03:35:13;;;;;;;;;;;;;;;9.68;49.03;101890.66;5022100;28;19940;-58
2022/05/02 03:37:39;;;;;;;;;;;;;;;9.64;48.82;101890.81;5024886;28;19913;-57
2022/05/02 03:40:05;;;;;;;;;;;;;;;9.60;49.04;101897.97;5026523;28;20439;-57
2022/05/02 03:42:30;;;;;;;;;;;;;;;9.53;49.10;101897.28;5021214;28;20380;-57
2022/05/02 03:44:55;;;;;;;;;;;;;;;9.46;49.31;101899.28;5024254;28;19920;-57
2022/05/02 03:47:21;;;;;;;;;;;;;;;9.37;49.29;101894.34;5023278;28;19936;-55
2022/05/02 03:49:46;;;;;;;;;;;;;;;9.29;49.29;101888.50;5025959;28;19943;-57
2022/05/02 03:52:11;;;;;;;;;;;;;;;9.25;49.49;101889.53;5029492;28;19924;-53
2022/05/02 03:54:37;;;;;;;;;;;;;;;9.21;49.57;101898.41;5029909;28;19921;-57
2022/05/02 03:57:02;;;;;;;;;;;;;;;9.19;49.73;101902.84;5024564;28;19921;-58
2022/05/02 03:59:27;;;;;;;;;;;;;;;9.15;49.72;101900.31;5023123;28;20784;-57
2022/05/02 04:01:53;;;;;;;;;;;;;;;9.15;49.67;101904.72;5023668;28;19913;-54
2022/05/02 04:04:18;;;;;;;;;;;;;;;9.17;49.79;101896.78;5025552;28;19983;-58
2022/05/02 04:06:43;;;;;;;;;;;;;;;9.18;49.78;101907.25;5026986;28;19917;-58
2022/05/02 04:09:09;;;;;;;;;;;;;;;9.20;49.78;101909.81;5027624;28;20007;-58
2022/05/02 04:11:34;;;;;;;;;;;;;;;9.23;49.73;101904.47;5021434;28;22085;-56
2022/05/02 04:13:59;;;;;;;;;;;;;;;9.25;49.76;101906.13;5018761;28;20015;-57
2022/05/02 04:16:25;;;;;;;;;;;;;;;9.26;49.81;101907.00;5022500;28;19921;-58
2022/05/02 04:18:50;;;;;;;;;;;;;;;9.27;49.67;101906.09;5029167;28;20450;-58
2022/05/02 04:21:15;;;;;;;;;;;;;;;9.26;49.73;101907.00;5016661;28;19925;-57
2022/05/02 04:23:41;;;;;;;;;;;;;;;9.21;49.67;101903.66;5025602;28;20368;-56
2022/05/02 04:26:06;;;;;;;;;;;;;;;9.13;49.93;101907.41;5027296;28;19913;-56
2022/05/02 04:28:31;;;;;;;;;;;;;;;9.13;50.08;101902.16;5017665;28;19923;-58
2022/05/02 04:30:57;;;;;;;;;;;;;;;9.17;50.14;101905.53;5016589;28;19924;-56
2022/05/02 04:33:23;;;;;;;;;;;;;;;9.24;50.05;101908.81;5024085;28;19917;-57
2022/05/02 04:35:49;;;;;;;;;;;;;;;9.31;50.01;101907.69;5027800;28;19970;-57
2022/05/02 04:38:14;;;;;;;;;;;;;;;9.35;49.93;101903.19;5017062;28;19921;-58
2022/05/02 04:40:39;;;;;;;;;;;;;;;9.40;49.86;101903.88;5017676;28;19927;-56
2022/05/02 04:43:05;;;;;;;;;;;;;;;9.43;49.82;101909.91;5016239;28;19935;-57
2022/05/02 04:45:30;;;;;;;;;;;;;;;9.47;49.76;101908.03;5025435;28;21225;-58
2022/05/02 04:47:57;;;;;;;;;;;;;;;9.48;50.04;101909.75;5011240;28;19921;-55
2022/05/02 04:50:22;;;;;;;;;;;;;;;9.52;50.04;101913.13;5022934;28;19933;-57
2022/05/02 04:52:47;;;;;;;;;;;;;;;9.56;50.00;101909.47;5020314;28;19993;-57
2022/05/02 04:55:13;;;;;;;;;;;;;;;9.59;50.05;101915.47;5024980;28;19929;-54
2022/05/02 04:57:38;;;;;;;;;;;;;;;9.61;49.93;101908.41;5017910;28;20354;-57
2022/05/02 05:00:04;;;;;;;;;;;;;;;9.63;50.06;101916.22;5022589;28;20424;-56
2022/05/02 05:02:29;;;;;;;;;;;;;;;9.64;50.02;101910.06;5025719;28;20388;-58
2022/05/02 05:04:54;;;;;;;;;;;;;;;9.69;50.01;101918.66;5026867;28;19928;-57
2022/05/02 05:07:20;;;;;;;;;;;;;;;9.76;49.90;101920.13;5021213;28;19917;-58
2022/05/02 05:09:45;;;;;;;;;;;;;;;9.84;50.00;101908.50;5029778;28;19921;-58
2022/05/02 05:12:16;;;;;;;;;;;;;;;9.90;49.96;101909.13;5027035;28;19920;-58
2022/05/02 05:17:35;;;;;;;;;;;;;;;10.04;49.90;101907.78;5024268;28;19928;-58
2022/05/02 05:20:03;;;;;;;;;;;;;;;10.05;49.99;101902.47;5027565;28;19917;-57
2022/05/02 05:22:58;;;;;;;;;;;;;;;10.14;49.93;101903.88;5029443;28;19947;-52
2022/05/02 05:25:26;;;;;;;;;;;;;;;10.26;49.88;101901.72;5013991;28;19917;-54
2022/05/02 05:28:04;;;;;;;;;;;;;;;10.35;49.80;101904.88;5031035;28;19913;-56
2022/05/02 05:30:36;;;;;;;;;;;;;;;10.42;49.65;101900.25;5026491;28;19913;-54
2022/05/02 06:40:04;;;;;;;;;;;;;;;11.28;50.27;101880.09;5025037;28;19920;-50
2022/05/02 06:42:41;;;;;;;;;;;;;;;11.34;50.11;101879.00;5029672;28;20438;-51
2022/05/02 06:45:16;;;;;;;;;;;;;;;11.39;50.11;101891.97;5021848;28;20008;-54
2022/05/02 06:47:59;;;;;;;;;;;;;;;11.44;49.97;101889.97;5029468;28;20435;-53
2022/05/02 06:50:25;;;;;;;;;;;;;;;11.50;49.90;101888.84;5025289;28;19925;-54
2022/05/02 06:52:56;;;;;;;;;;;;;;;11.56;49.79;101891.22;5022542;28;20456;-49
2022/05/02 06:55:48;;;;;;;;;;;;;;;11.63;49.79;101884.78;5024006;28;19983;-52
2022/05/02 06:58:24;;;;;;;;;;;;;;;11.69;49.64;101883.66;5023132;28;20445;-54
2022/05/02 07:01:11;;;;;;;;;;;;;;;11.70;49.53;101883.56;5027091;28;20361;-51
2022/05/02 07:03:40;;;;;;;;;;;;;;;11.71;49.65;101884.44;5020680;28;19956;-50
2022/05/02 07:06:24;;;;;;;;;;;;;;;11.72;49.55;101889.66;5025796;28;20725;-51
2022/05/02 07:08:56;;;;;;;;;;;;;;;11.74;49.34;101886.94;5025310;28;20012;-50
2022/05/02 07:11:22;;;;;;;;;;;;;;;11.78;49.53;101893.78;5025278;28;19924;-49
2022/05/02 07:13:53;;;;;;;;;;;;;;;11.85;49.45;101892.59;5028746;28;19917;-50
2022/05/02 07:16:22;;;;;;;;;;;;;;;11.87;49.40;101892.53;5028883;28;19913;-51
2022/05/02 07:19:06;;;;;;;;;;;;;;;11.87;49.53;101893.34;5025148;28;20319;-55
2022/05/02 07:21:49;;;;;;;;;;;;;;;11.89;49.39;101886.25;5026807;28;19924;-53
2022/05/02 07:24:14;;;;;;;;;;;;;;;11.96;49.22;101889.44;5026272;28;19916;-52
2022/05/02 07:26:41;;;;;;;;;;;;;;;12.00;49.28;101884.94;5013485;28;19909;-50
2022/05/02 07:29:08;;;;;;;;;;;;;;;12.04;49.15;101879.47;5024829;28;19975;-55
2022/05/02 07:31:34;;;;;;;;;;;;;;;12.08;49.17;101877.53;5030716;28;19956;-52
2022/05/02 07:34:01;;;;;;;;;;;;;;;12.11;49.30;101877.41;5026308;28;19949;-50
2022/05/02 07:36:27;;;;;;;;;;;;;;;12.18;49.17;101880.59;5030062;28;19913;-50
2022/05/02 07:38:54;;;;;;;;;;;;;;;12.26;49.16;101877.59;5011695;28;19970;-50
2022/05/02 07:41:25;;;;;;;;;;;;;;;12.34;48.77;101880.72;5032488;28;20437;-53
2022/05/02 07:43:52;;;;;;;;;;;;;;;12.41;49.01;101874.25;5027283;28;20365;-50
2022/05/02 07:46:20;;;;;;;;;;;;;;;12.46;48.67;101874.91;5033565;28;19924;-50
2022/05/02 07:48:46;;;;;;;;;;;;;;;12.50;48.67;101876.44;5024154;28;19959;-54
2022/05/02 07:51:12;;;;;;;;;;;;;;;12.54;48.60;101878.94;5022638;28;19913;-55
2022/05/02 07:53:41;;;;;;;;;;;;;;;12.60;48.59;101870.72;5027119;28;19925;-55
2022/05/02 07:56:10;;;;;;;;;;;;;;;12.65;48.47;101880.13;5017894;28;19916;-54
2022/05/02 07:58:40;;;;;;;;;;;;;;;12.71;48.39;101873.69;5032865;28;20115;-55
2022/05/02 08:01:05;;;;;;;;;;;;;;;12.77;48.51;101876.06;5033446;28;19921;-51
2022/05/02 08:03:30;;;;;;;;;;;;;;;12.81;48.22;101877.59;5026438;28;19913;-56
2022/05/02 08:06:01;;;;;;;;;;;;;;;12.86;47.98;101873.88;5030611;28;19929;-55
2022/05/02 08:08:34;;;;;;;;;;;;;;;12.90;47.40;101873.66;5027515;28;20353;-51
2022/05/02 08:11:08;;;;;;;;;;;;;;;12.97;47.35;101871.56;5023531;28;19915;-52
2022/05/02 08:13:42;;;;;;;;;;;;;;;13.00;46.94;101868.75;5025832;28;19914;-52
2022/05/02 08:16:19;;;;;;;;;;;;;;;13.05;46.87;101876.44;5024936;28;19921;-51
2022/05/02 08:19:03;;;;;;;;;;;;;;;13.09;46.42;101872.72;5026434;28;19913;-54
2022/05/02 08:21:42;;;;;;;;;;;;;;;13.17;46.20;101870.53;5026285;28;19957;-53
2022/05/02 08:27:15;;;;;;;;;;;;;;;13.31;45.13;101871.66;5028868;28;19943;-51
2022/05/02 08:29:47;;;;;;;;;;;;;;;13.33;44.46;101865.34;5024968;28;19913;-54
2022/05/02 08:32:22;;;;;;;;;;;;;;;13.37;44.58;101860.75;5029865;28;20351;-50
2022/05/02 08:34:58;;;;;;;;;;;;;;;13.40;44.65;101858.81;5033407;28;19909;-56
2022/05/02 08:37:26;;;;;;;;;;;;;;;13.45;44.56;101865.66;5029542;28;19913;-53
2022/05/02 08:40:00;;;;;;;;;;;;;;;13.50;44.45;101861.00;5032020;28;19996;-53
2022/05/02 08:42:34;;;;;;;;;;;;;;;13.53;44.00;101861.69;5024577;28;20373;-57
2022/05/02 08:45:08;;;;;;;;;;;;;;;13.56;43.36;101866.81;5011489;28;19936;-51
2022/05/02 08:47:34;;;;;;;;;;;;;;;13.58;43.39;101869.38;5030668;28;19909;-56
2022/05/02 08:50:02;;;;;;;;;;;;;;;13.57;43.27;101859.72;5033785;28;19955;-51
2022/05/02 08:52:47;;;;;;;;;;;;;;;13.60;43.22;101856.09;5028965;28;19920;-54
2022/05/02 08:55:27;;;;;;;;;;;;;;;13.67;42.58;101855.69;5024339;28;19960;-50
2022/05/02 08:58:08;;;;;;;;;;;;;;;13.76;42.39;101858.75;5027584;28;19913;-53
2022/05/02 09:00:33;;;;;;;;;;;;;;;13.80;41.90;101855.03;5010609;28;20392;-52
2022/05/02 09:03:17;;;;;;;;;;;;;;;13.86;41.88;101854.69;5026169;28;19913;-50
2022/05/02 09:06:18;;;;;;;;;;;;;;;13.95;41.02;101861.25;5028846;28;19920;-53
2022/05/02 09:09:03;;;;;;;;;;;;;;;13.97;39.99;101840.88;4943858;28;19977;-50
2022/05/02 09:11:38;;;;;;;;;;;;;;;13.98;40.34;101839.94;5023686;28;19912;-51
2022/05/02 09:14:09;;;;;;;;;;;;;;;13.96;40.08;101842.69;5011376;28;20003;-51
2022/05/02 09:16:53;;;;;;;;;;;;;;;13.99;39.50;101839.84;5026835;28;19920;-53
2022/05/02 09:19:18;;;;;;;;;;;;;;;14.00;39.49;101841.56;5029260;28;19940;-50
2022/05/02 09:22:02;;;;;;;;;;;;;;;13.99;39.70;101836.34;5026011;28;19955;-50
2022/05/02 09:24:48;;;;;;;;;;;;;;;14.01;40.20;101832.69;5012304;28;19959;-53
2022/05/02 09:27:14;;;;;;;;;;;;;;;14.03;40.38;101824.66;5025464;28;20289;-53
2022/05/02 09:29:59;;;;;;;;;;;;;;;14.07;40.46;101828.84;5023691;28;20404;-56
2022/05/02 09:32:44;;;;;;;;;;;;;;;14.11;40.42;101818.94;5028329;28;20332;-51
2022/05/02 09:35:13;;;;;;;;;;;;;;;14.20;40.37;101818.44;5027596;28;19997;-50
2022/05/02 09:37:51;;;;;;;;;;;;;;;14.27;40.19;101819.81;5030694;28;19954;-50
2022/05/02 09:40:18;;;;;;;;;;;;;;;14.32;40.09;101820.38;5026889;28;19916;-50
2022/05/02 09:43:05;;;;;;;;;;;;;;;14.35;40.02;101808.78;5019867;28;20418;-52
2022/05/02 09:51:24;;;;;;;;;;;;;;;14.47;39.81;101809.84;5027234;28;19935;-50
2022/05/02 09:54:01;;;;;;;;;;;;;;;14.50;39.91;101804.41;5024408;28;20001;-51
2022/05/02 09:56:39;;;;;;;;;;;;;;;14.50;39.07;101804.41;5028448;28;19912;-54
2022/05/02 09:59:23;;;;;;;;;;;;;;;14.54;38.62;101813.88;5029555;28;19913;-53
2022/05/02 10:01:50;;;;;;;;;;;;;;;14.54;38.79;101803.28;5017579;28;19924;-51
2022/05/02 10:04:35;;;;;;;;;;;;;;;14.55;38.66;101796.19;5026743;28;20365;-55
2022/05/02 10:07:04;;;;;;;;;;;;;;;14.54;38.37;101795.34;5025106;28;19933;-59
2022/05/02 10:09:36;;;;;;;;;;;;;;;14.57;38.45;101787.22;5030471;28;19908;-52
2022/05/02 10:12:10;;;;;;;;;;;;;;;14.58;38.67;101786.28;5027472;28;19913;-55
2022/05/02 10:14:50;;;;;;;;;;;;;;;14.61;38.46;101788.72;5024761;28;19913;-51
2022/05/02 10:17:20;;;;;;;;;;;;;;;14.63;38.49;101788.66;5028015;28;19939;-54
2022/05/02 10:20:04;;;;;;;;;;;;;;;14.67;38.36;101786.66;5006583;28;19921;-55
2022/05/02 10:22:30;;;;;;;;;;;;;;;14.68;38.25;101777.81;5030250;28;19994;-56
2022/05/02 10:25:04;;;;;;;;;;;;;;;14.69;38.61;101779.53;5025708;28;19960;-51
2022/05/02 10:27:47;;;;;;;;;;;;;;;14.75;38.16;101777.38;5018879;28;20408;-52
2022/05/02 10:30:13;;;;;;;;;;;;;;;14.81;38.14;101773.50;5025334;28;19932;-50
2022/05/02 10:32:41;;;;;;;;;;;;;;;14.82;38.31;101767.25;5023523;28;19917;-52
2022/05/02 10:35:10;;;;;;;;;;;;;;;14.83;38.22;101758.38;5025658;28;19927;-52
2022/05/02 10:37:38;;;;;;;;;;;;;;;14.86;38.21;101752.03;5029147;28;19909;-53
2022/05/02 10:40:07;;;;;;;;;;;;;;;14.88;38.36;101753.66;5027414;28;19917;-52
2022/05/02 10:42:33;;;;;;;;;;;;;;;14.89;38.35;101754.50;5029824;28;20008;-54
2022/05/02 10:45:04;;;;;;;;;;;;;;;14.93;38.09;101748.06;5026836;28;19920;-56
2022/05/02 10:47:37;;;;;;;;;;;;;;;14.93;37.80;101748.91;5027882;28;19916;-51
2022/05/02 10:50:11;;;;;;;;;;;;;;;14.95;37.65;101740.88;5028483;28;19909;-55
2022/05/02 10:52:40;;;;;;;;;;;;;;;15.00;38.00;101737.94;5024920;28;19928;-52
2022/05/02 10:55:12;;;;;;;;;;;;;;;15.09;38.13;101738.25;5028133;28;19916;-50
2022/05/02 10:57:37;;;;;;;;;;;;;;;15.19;37.93;101740.31;5026607;28;19917;-53
2022/05/02 11:00:06;;;;;;;;;;;;;;;15.24;37.96;101741.75;5026210;28;19913;-51
2022/05/02 11:02:50;;;;;;;;;;;;;;;15.27;37.77;101735.41;5026392;28;19921;-50
2022/05/02 11:05:17;;;;;;;;;;;;;;;15.29;37.68;101727.34;5027744;28;19914;-52
2022/05/02 11:07:57;;;;;;;;;;;;;;;15.26;38.11;101733.72;5035683;28;19917;-51
2022/05/02 11:10:27;;;;;;;;;;;;;;;15.31;38.02;101736.91;5033380;28;19956;-55
2022/05/02 11:13:04;;;;;;;;;;;;;;;15.37;37.69;101730.38;5032706;28;19940;-58
2022/05/02 11:15:35;;;;;;;;;;;;;;;15.39;37.60;101720.53;5036915;28;19913;-55
2022/05/02 11:18:08;;;;;;;;;;;;;;;15.46;37.69;101723.63;5027302;28;19952;-51
2022/05/02 11:20:49;;;;;;;;;;;;;;;15.48;37.84;101712.00;5035140;28;19913;-57
2022/05/02 11:23:15;;;;;;;;;;;;;;;15.52;37.83;101712.66;5029373;28;19912;-52
2022/05/02 11:25:49;;;;;;;;;;;;;;;15.61;37.96;101705.91;5028504;28;19913;-51
2022/05/02 11:28:19;;;;;;;;;;;;;;;15.73;37.97;101701.63;5034143;28;20381;-52
2022/05/02 11:30:52;;;;;;;;;;;;;;;15.85;37.39;101717.63;5032533;28;19928;-57
2022/05/02 11:33:39;;;;;;;;;;;;;;;15.95;36.98;101698.47;5032147;28;19959;-54
2022/05/02 11:36:06;;;;;;;;;;;;;;;16.01;36.68;101708.66;5028233;28;19913;-57
2022/05/02 11:38:36;;;;;;;;;;;;;;;16.06;36.57;101695.09;5032022;28;20381;-56
2022/05/02 11:41:14;;;;;;;;;;;;;;;16.07;36.77;101683.50;5033237;28;19944;-55
2022/05/02 11:43:39;;;;;;;;;;;;;;;16.15;36.71;101695.31;5028667;28;19916;-55
2022/05/02 11:46:26;;;;;;;;;;;;;;;16.24;36.24;101687.72;5033884;28;19913;-57
2022/05/02 11:49:02;;;;;;;;;;;;;;;16.31;36.34;101683.69;5032945;28;19924;-58
2022/05/02 11:51:30;;;;;;;;;;;;;;;16.38;36.04;101677.03;5031083;28;19951;-58
2022/05/02 11:53:58;;;;;;;;;;;;;;;16.44;36.19;101668.63;5027986;28;19914;-57
2022/05/02 11:56:30;;;;;;;;;;;;;;;16.50;36.25;101672.66;5029096;28;19984;-57
2022/05/02 11:59:03;;;;;;;;;;;;;;;16.55;36.32;101669.72;5025816;28;19955;-56
2022/05/02 12:01:36;;;;;;;;;;;;;;;16.58;36.28;101664.16;5032761;28;19917;-56
2022/05/02 12:04:03;;;;;;;;;;;;;;;16.55;36.08;101661.75;5031965;28;19913;-54
2022/05/02 12:06:36;;;;;;;;;;;;;;;16.50;36.02;101666.50;5030238;28;19921;-57
2022/05/02 12:09:07;;;;;;;;;;;;;;;16.45;36.13;101665.00;5027908;28;19913;-58
2022/05/02 12:11:50;;;;;;;;;;;;;;;16.41;35.95;101655.53;5029012;28;19913;-53
2022/05/02 12:14:19;;;;;;;;;;;;;;;16.40;35.93;101645.03;5031893;28;20501;-52
2022/05/02 12:17:01;;;;;;;;;;;;;;;16.43;35.36;101655.44;5011661;28;19913;-57
2022/05/02 12:19:33;;;;;;;;;;;;;;;16.48;35.66;101648.03;5027525;28;19923;-53
2022/05/02 12:22:04;;;;;;;;;;;;;;;16.58;35.65;101649.09;5030704;28;20262;-53
2022/05/02 12:24:34;;;;;;;;;;;;;;;16.64;35.53;101644.31;5028739;28;19913;-53
2022/05/02 12:27:00;;;;;;;;;;;;;;;16.68;35.32;101637.81;5010579;28;20404;-50
2022/05/02 12:29:26;;;;;;;;;;;;;;;16.74;35.50;101632.91;5025178;28;19987;-51
2022/05/02 12:31:59;;;;;;;;;;;;;;;16.81;35.45;101629.84;5026255;28;19924;-52
2022/05/02 12:34:36;;;;;;;;;;;;;;;16.84;35.19;101632.28;5023721;28;19924;-54
2022/05/02 12:37:23;;;;;;;;;;;;;;;16.94;35.22;101633.34;5030037;28;20439;-50
2022/05/02 12:39:57;;;;;;;;;;;;;;;17.00;34.92;101632.06;5014151;28;19952;-54
2022/05/02 12:42:25;;;;;;;;;;;;;;;17.01;34.98;101624.00;5023187;28;19913;-54
2022/05/02 12:44:52;;;;;;;;;;;;;;;16.99;35.09;101619.75;5021861;28;19917;-52
2022/05/02 12:47:22;;;;;;;;;;;;;;;17.01;35.33;101615.16;5021324;28;19920;-52
2022/05/02 12:49:59;;;;;;;;;;;;;;;17.06;35.12;101624.50;5023205;28;19925;-51
2022/05/02 12:52:27;;;;;;;;;;;;;;;17.08;34.79;101612.91;5021036;28;20518;-51
2022/05/02 12:54:54;;;;;;;;;;;;;;;17.09;35.11;101617.28;5026238;28;19952;-52
2022/05/02 13:00:34;;;;;;;;;;;;;;;17.17;34.85;101620.22;5017649;28;19955;-56
2022/05/02 13:03:15;;;;;;;;;;;;;;;17.23;34.74;101608.31;5020574;28;19986;-54
2022/05/02 13:05:57;;;;;;;;;;;;;;;17.27;34.75;101609.78;5026769;28;19920;-53
2022/05/02 13:08:29;;;;;;;;;;;;;;;17.32;34.84;101605.81;5021206;28;19917;-57
2022/05/02 13:11:03;;;;;;;;;;;;;;;17.35;34.83;101588.81;5023746;28;19974;-56
2022/05/02 13:13:37;;;;;;;;;;;;;;;17.44;34.89;101606.75;5028734;28;19909;-57
2022/05/02 13:16:11;;;;;;;;;;;;;;;17.46;34.61;101601.31;5030614;28;20075;-53
2022/05/02 13:18:44;;;;;;;;;;;;;;;17.48;34.56;101604.69;5027957;28;19913;-53
2022/05/02 13:21:12;;;;;;;;;;;;;;;17.50;34.64;101593.00;5030086;28;20376;-50
2022/05/02 13:23:38;;;;;;;;;;;;;;;17.56;34.29;101602.34;5026445;28;20289;-50
2022/05/02 13:26:26;;;;;;;;;;;;;;;17.55;34.27;101579.34;5017596;28;19917;-49
2022/05/02 13:29:07;;;;;;;;;;;;;;;17.56;34.36;101583.72;5024858;28;19925;-54
2022/05/02 13:31:35;;;;;;;;;;;;;;;17.55;34.24;101573.16;5024897;28;19915;-58
2022/05/02 13:34:03;;;;;;;;;;;;;;;17.50;34.45;101576.16;5026869;28;20016;-54
2022/05/02 13:36:30;;;;;;;;;;;;;;;17.52;34.61;101574.25;5027254;28;19920;-51
2022/05/02 13:39:05;;;;;;;;;;;;;;;17.62;34.47;101571.75;5027515;28;19917;-52
2022/05/02 13:41:33;;;;;;;;;;;;;;;17.70;34.20;101577.34;5024901;28;19917;-51
2022/05/02 13:44:11;;;;;;;;;;;;;;;17.74;33.79;101572.66;5028379;28;19960;-53
2022/05/02 13:47:11;;;;;;;;;;;;;;;17.77;33.86;101569.78;5024808;28;19923;-54
2022/05/02 13:49:36;;;;;;;;;;;;;;;17.78;33.98;101556.34;4922265;29;20481;-58
2022/05/02 13:52:11;;;;;;;;;;;;;;;17.85;33.90;101570.03;5002970;28;19913;-58
2022/05/02 13:54:39;;;;;;;;;;;;;;;17.81;33.44;101552.59;5023880;28;19917;-59
2022/05/02 13:57:20;;;;;;;;;;;;;;;17.73;33.50;101561.16;5027522;28;19913;-59
2022/05/02 14:03:32;;;;;;;;;;;;;;;17.78;33.73;101536.84;5027804;28;19919;-57
2022/05/02 14:05:49;;;;;;;;;;;;;;;18.03;33.88;101545.66;5019646;28;21198;-57
2022/05/02 14:08:16;;;;;;;;;;;;;;;18.41;33.50;101549.81;5029841;28;20384;-58
2022/05/02 14:10:57;;;;;;;;;;;;;;;18.65;33.03;101530.22;5024344;28;19918;-57
2022/05/02 14:13:22;;;;;;;;;;;;;;;18.79;32.48;101542.41;5022173;28;20016;-55
2022/05/02 14:15:48;;;;;;;;;;;;;;;18.85;32.24;101536.59;5027537;28;19971;-54
2022/05/02 14:18:17;;;;;;;;;;;;;;;18.96;31.72;101533.94;5028330;28;19922;-53
2022/05/02 14:20:43;;;;;;;;;;;;;;;19.12;31.92;101546.03;5027254;28;19943;-54
2022/05/02 14:23:09;;;;;;;;;;;;;;;19.25;31.71;101543.22;5025328;28;20336;-58
2022/05/02 14:25:36;;;;;;;;;;;;;;;19.25;31.10;101549.38;5023483;28;19923;-58